Time;durP1;ratioP1;P1;durP2;ratioP2;P2;SDS_P1;SDS_P2;PMS_P1;PMS_P2;Temp;Humidity;BMP_temperature;BMP_pressure;BME280_temperature;BME280_humidity;BME280_pressure;Samples;Min_cycle;Max_cycle;Signal;HPM_P1;HPM_P2
2021/10/19 00:00:42;;;;;;;3.97;2.38;;;;;;;21.09;48.78;101795.16;4994314;28;20038;-63
2021/10/19 00:03:08;;;;;;;4.70;2.55;;;;;;;21.06;48.72;101792.78;4993192;28;20023;-61
2021/10/19 00:05:34;;;;;;;4.13;2.42;;;;;;;21.05;48.85;101788.44;4993964;28;20125;-60
2021/10/19 00:07:59;;;;;;;4.38;2.63;;;;;;;21.04;48.91;101786.72;4993392;28;20113;-60
2021/10/19 00:10:25;;;;;;;4.20;2.60;;;;;;;21.02;48.68;101781.56;4992876;28;20035;-60
2021/10/19 00:12:50;;;;;;;4.53;2.40;;;;;;;21.01;48.87;101782.53;4993510;28;20026;-61
2021/10/19 00:15:22;;;;;;;4.57;2.70;;;;;;;21.00;48.88;101788.78;4993316;28;20303;-61
2021/10/19 00:17:48;;;;;;;5.18;2.38;;;;;;;20.99;48.97;101799.50;4993235;28;20022;-61
2021/10/19 00:20:15;;;;;;;4.40;2.40;;;;;;;20.98;49.01;101798.69;4993257;28;20040;-60
2021/10/19 00:22:43;;;;;;;5.20;2.70;;;;;;;20.96;48.96;101805.88;4992719;28;20034;-60
2021/10/19 00:25:14;;;;;;;4.75;2.33;;;;;;;20.95;49.08;101809.50;4993055;28;20112;-60
2021/10/19 00:27:39;;;;;;;5.05;3.05;;;;;;;20.93;48.88;101805.28;4993554;28;20038;-60
2021/10/19 00:30:07;;;;;;;4.20;2.57;;;;;;;20.94;49.19;101809.63;4992358;28;20504;-60
2021/10/19 00:32:32;;;;;;;4.40;2.40;;;;;;;20.92;49.11;101804.44;4993531;28;20643;-60
2021/10/19 00:34:57;;;;;;;4.28;2.50;;;;;;;20.90;49.09;101803.72;4992762;28;20049;-60
2021/10/19 00:37:23;;;;;;;4.03;2.30;;;;;;;20.90;49.00;101810.81;4992192;28;20033;-60
2021/10/19 00:39:48;;;;;;;4.65;2.60;;;;;;;20.88;49.28;101805.66;4992943;28;20383;-61
2021/10/19 00:42:13;;;;;;;4.40;2.50;;;;;;;20.88;49.15;101803.00;4992854;28;20472;-61
2021/10/19 00:44:38;;;;;;;4.35;2.50;;;;;;;20.88;49.12;101799.50;4992226;28;20034;-60
2021/10/19 00:47:04;;;;;;;4.32;2.58;;;;;;;20.87;49.22;101792.50;4992837;28;20466;-60
2021/10/19 00:49:29;;;;;;;4.53;2.50;;;;;;;20.86;49.29;101786.38;4992948;28;20038;-61
2021/10/19 00:51:55;;;;;;;4.00;2.53;;;;;;;20.84;49.45;101793.63;4992253;28;20047;-60
2021/10/19 00:54:23;;;;;;;4.53;2.67;;;;;;;20.83;49.33;101783.97;4992389;28;20093;-60
2021/10/19 00:57:00;;;;;;;4.35;2.40;;;;;;;20.82;49.38;101779.63;4992838;28;20034;-60
2021/10/19 00:59:25;;;;;;;4.00;2.30;;;;;;;20.83;49.44;101773.38;4992080;28;20026;-61
2021/10/19 01:01:51;;;;;;;4.57;2.60;;;;;;;20.82;49.31;101771.69;4992910;28;20034;-60
2021/10/19 01:04:16;;;;;;;4.20;2.40;;;;;;;20.80;49.47;101770.97;4992607;28;20070;-61
2021/10/19 01:06:41;;;;;;;5.07;2.50;;;;;;;20.81;49.50;101772.66;4991959;28;20126;-61
2021/10/19 01:09:08;;;;;;;4.28;2.53;;;;;;;20.79;49.64;101772.78;4992318;28;20030;-60
2021/10/19 01:11:33;;;;;;;4.57;2.40;;;;;;;20.79;49.63;101772.78;4992905;28;20094;-60
2021/10/19 01:13:58;;;;;;;4.20;2.23;;;;;;;20.79;49.58;101774.56;4991711;28;20046;-60
2021/10/19 01:16:24;;;;;;;4.90;2.40;;;;;;;20.78;49.58;101775.53;4992730;28;20292;-60
2021/10/19 01:18:49;;;;;;;4.28;2.60;;;;;;;20.78;49.63;101772.91;4991249;28;20046;-60
2021/10/19 01:21:14;;;;;;;4.68;2.70;;;;;;;20.78;49.71;101775.53;4991728;28;20283;-60
2021/10/19 01:23:39;;;;;;;4.43;2.33;;;;;;;20.76;49.60;101767.72;4992493;28;20086;-60
2021/10/19 01:26:08;;;;;;;4.28;2.17;;;;;;;20.75;49.77;101760.72;4993332;28;20288;-61
2021/10/19 01:28:37;;;;;;;5.95;3.00;;;;;;;20.75;49.68;101755.44;4996247;28;20450;-60
2021/10/19 01:31:05;;;;;;;4.47;2.63;;;;;;;20.74;49.80;101756.38;4996069;28;20034;-60
2021/10/19 01:33:30;;;;;;;4.35;2.55;;;;;;;20.75;49.53;101754.59;4995576;28;20490;-60
2021/10/19 01:35:56;;;;;;;4.38;2.53;;;;;;;20.74;49.70;101747.59;4995915;28;20080;-60
2021/10/19 01:38:24;;;;;;;4.65;2.30;;;;;;;20.74;49.81;101742.31;4996249;28;20034;-59
2021/10/19 01:40:50;;;;;;;5.50;2.53;;;;;;;20.73;49.72;101738.81;4995643;28;20034;-61
2021/10/19 01:43:20;;;;;;;4.35;2.35;;;;;;;20.73;49.79;101730.00;4995740;28;20490;-60
2021/10/19 01:45:51;;;;;;;3.90;2.40;;;;;;;20.72;49.76;101733.63;4996171;28;20030;-61
2021/10/19 01:48:17;;;;;;;4.40;2.67;;;;;;;20.71;49.75;101722.22;4994867;28;20170;-61
2021/10/19 01:50:46;;;;;;;4.90;2.83;;;;;;;20.71;49.90;101714.25;4995765;28;20097;-60
2021/10/19 01:53:12;;;;;;;4.78;2.63;;;;;;;20.70;49.82;101709.09;4995728;28;20034;-60
2021/10/19 01:55:40;;;;;;;4.15;2.47;;;;;;;20.69;49.82;101689.69;4994859;28;20053;-60
2021/10/19 01:58:07;;;;;;;4.63;2.40;;;;;;;20.69;50.17;101692.34;4995471;28;20031;-60
2021/10/19 02:00:33;;;;;;;4.55;2.47;;;;;;;20.69;49.98;101694.16;4995658;28;20026;-60
2021/10/19 02:02:58;;;;;;;4.28;2.50;;;;;;;20.68;50.03;101705.69;4994539;28;20029;-61
2021/10/19 02:05:23;;;;;;;4.05;2.30;;;;;;;20.68;50.16;101697.75;4995857;28;20386;-60
2021/10/19 02:07:48;;;;;;;4.40;2.20;;;;;;;20.67;50.36;101693.44;4995503;28;20026;-61
2021/10/19 02:10:14;;;;;;;4.00;2.37;;;;;;;20.67;50.15;101691.63;4994539;28;20296;-60
2021/10/19 02:12:40;;;;;;;4.38;2.65;;;;;;;20.68;50.03;101684.50;4995558;28;20755;-61
2021/10/19 02:15:07;;;;;;;4.28;2.30;;;;;;;20.66;49.97;101681.97;4995018;28;20141;-61
2021/10/19 02:17:35;;;;;;;4.20;2.38;;;;;;;20.67;50.32;101691.63;4994935;28;20360;-60
2021/10/19 02:20:01;;;;;;;4.93;3.00;;;;;;;20.64;50.09;101683.91;4995329;28;20095;-60
2021/10/19 02:22:28;;;;;;;4.97;2.50;;;;;;;20.63;50.31;101680.41;4994652;28;20438;-60
2021/10/19 02:24:53;;;;;;;3.97;2.33;;;;;;;20.64;50.31;101683.91;4995355;28;20048;-60
2021/10/19 02:27:19;;;;;;;4.40;2.40;;;;;;;20.64;50.15;101679.44;4994991;28;20036;-60
2021/10/19 02:29:47;;;;;;;4.55;2.60;;;;;;;20.63;50.14;101677.75;4994297;28;20105;-60
2021/10/19 02:32:12;;;;;;;3.90;2.35;;;;;;;20.63;50.43;101676.88;4995299;28;20033;-60
2021/10/19 02:34:38;;;;;;;3.92;2.50;;;;;;;20.61;50.44;101671.72;4995262;28;20386;-60
2021/10/19 02:37:04;;;;;;;4.43;2.58;;;;;;;20.63;50.47;101679.53;4993872;28;20033;-60
2021/10/19 02:39:29;;;;;;;5.03;2.60;;;;;;;20.62;50.38;101676.06;4994885;28;20026;-60
2021/10/19 02:41:57;;;;;;;4.22;2.30;;;;;;;20.63;50.45;101676.88;4994916;28;20085;-60
2021/10/19 02:44:22;;;;;;;4.32;2.42;;;;;;;20.62;50.39;101678.72;4994020;28;20034;-61
2021/10/19 02:46:48;;;;;;;5.22;2.53;;;;;;;20.60;50.22;101672.69;4994748;28;20026;-61
2021/10/19 02:49:13;;;;;;;4.30;2.40;;;;;;;20.61;50.24;101670.88;4994379;28;20050;-60
2021/10/19 02:51:39;;;;;;;3.92;2.30;;;;;;;20.61;50.18;101665.59;4994158;28;20085;-61
2021/10/19 02:54:04;;;;;;;5.13;2.90;;;;;;;20.61;50.38;101665.59;4994328;28;20514;-61
2021/10/19 02:56:29;;;;;;;6.10;2.60;;;;;;;20.59;50.35;101652.47;4994869;28;20482;-61
2021/10/19 02:58:55;;;;;;;4.32;2.67;;;;;;;20.60;50.57;101648.00;4993861;28;20061;-61
2021/10/19 03:01:20;;;;;;;4.63;2.30;;;;;;;20.59;50.36;101641.03;4994264;28;20375;-61
2021/10/19 03:03:45;;;;;;;4.57;2.38;;;;;;;20.59;50.15;101641.03;4994585;28;20034;-61
2021/10/19 03:06:11;;;;;;;4.43;2.67;;;;;;;20.59;50.44;101641.03;4993731;28;20108;-61
2021/10/19 03:08:36;;;;;;;5.90;2.58;;;;;;;20.59;50.33;101635.75;4994567;28;20493;-61
2021/10/19 03:11:05;;;;;;;4.73;2.50;;;;;;;20.56;50.49;101636.81;4994181;28;20034;-61
2021/10/19 03:13:32;;;;;;;4.22;2.40;;;;;;;20.57;50.50;101637.66;4993575;28;20284;-60
2021/10/19 03:15:58;;;;;;;4.05;2.53;;;;;;;20.57;50.59;101640.28;4993845;28;20490;-60
2021/10/19 03:18:23;;;;;;;4.40;2.42;;;;;;;20.56;50.75;101642.13;4994434;28;20034;-60
2021/10/19 03:20:50;;;;;;;3.60;2.28;;;;;;;20.56;50.38;101642.13;4994078;28;20061;-60
2021/10/19 03:23:16;;;;;;;3.85;2.20;;;;;;;20.56;50.51;101650.06;4994014;28;20113;-61
2021/10/19 03:25:42;;;;;;;4.25;2.50;;;;;;;20.54;50.50;101646.69;4993557;28;20110;-60
2021/10/19 03:28:07;;;;;;;5.70;2.50;;;;;;;20.55;50.59;101642.22;4993738;28;20141;-61
2021/10/19 03:30:32;;;;;;;4.35;2.30;;;;;;;20.55;50.62;101629.00;4993856;28;20045;-61
2021/10/19 03:32:58;;;;;;;4.83;3.03;;;;;;;20.55;50.51;101626.34;4993280;28;20038;-61
2021/10/19 03:35:23;;;;;;;5.13;2.33;;;;;;;20.55;50.53;101626.34;4994024;28;20735;-60
2021/10/19 03:37:48;;;;;;;4.20;2.50;;;;;;;20.55;50.53;101629.00;4993839;28;20072;-60
2021/10/19 03:40:14;;;;;;;4.03;2.58;;;;;;;20.54;50.69;101617.56;4992875;28;20065;-60
2021/10/19 03:42:41;;;;;;;4.28;2.30;;;;;;;20.54;50.62;101612.28;4993739;28;20121;-61
2021/10/19 03:45:10;;;;;;;4.10;2.42;;;;;;;20.54;50.42;101611.44;4993249;28;20148;-60
2021/10/19 03:47:35;;;;;;;4.07;2.45;;;;;;;20.52;50.38;101611.56;4993067;28;20153;-60
2021/10/19 03:50:03;;;;;;;3.97;2.10;;;;;;;20.53;50.54;101625.63;4993006;28;20109;-60
2021/10/19 03:52:29;;;;;;;4.65;2.50;;;;;;;20.52;50.63;101629.22;4993811;28;20042;-60
2021/10/19 03:54:54;;;;;;;4.40;2.30;;;;;;;20.52;50.50;101621.28;4992727;28;20335;-60
2021/10/19 03:57:19;;;;;;;4.13;2.30;;;;;;;20.50;50.65;101609.97;4993249;28;20037;-60
2021/10/19 03:59:45;;;;;;;4.30;2.20;;;;;;;20.52;50.77;101608.06;4993426;28;20275;-60
2021/10/19 04:02:10;;;;;;;3.93;2.30;;;;;;;20.52;50.68;101616.00;4992408;28;20026;-61
2021/10/19 04:04:38;;;;;;;4.73;2.40;;;;;;;20.51;50.69;101614.34;4993526;28;20284;-62
2021/10/19 04:07:03;;;;;;;3.95;2.50;;;;;;;20.50;50.62;101616.13;4992971;28;20486;-61
2021/10/19 04:09:29;;;;;;;4.28;2.60;;;;;;;20.48;50.71;101612.75;4992576;28;20041;-60
2021/10/19 04:11:55;;;;;;;4.30;2.30;;;;;;;20.48;50.79;101616.22;4993260;28;20069;-60
2021/10/19 04:14:21;;;;;;;4.70;2.30;;;;;;;20.50;50.68;101617.94;4993031;28;20105;-62
2021/10/19 04:16:49;;;;;;;4.72;2.50;;;;;;;20.48;50.76;101626.81;4992477;28;20117;-61
2021/10/19 04:19:14;;;;;;;4.15;2.60;;;;;;;20.49;50.84;101627.69;4992984;28;20038;-62
2021/10/19 04:21:47;;;;;;;4.80;2.40;;;;;;;20.47;51.06;101619.88;4993318;28;20049;-61
2021/10/19 04:24:13;;;;;;;4.20;2.38;;;;;;;20.49;50.80;101627.69;4992732;28;20034;-61
2021/10/19 04:26:38;;;;;;;4.10;2.20;;;;;;;20.48;50.71;101618.06;4992939;28;20034;-61
2021/10/19 04:29:04;;;;;;;4.63;2.00;;;;;;;20.47;50.81;101626.94;4992597;28;20045;-59
2021/10/19 04:31:31;;;;;;;4.00;2.20;;;;;;;20.48;50.72;101623.34;4993190;28;20034;-60
2021/10/19 04:33:59;;;;;;;4.53;2.30;;;;;;;20.46;50.80;101623.47;4994057;28;20038;-60
2021/10/19 04:36:24;;;;;;;3.70;2.03;;;;;;;20.47;50.84;101619.00;4992329;28;20425;-61
2021/10/19 04:38:50;;;;;;;4.43;2.30;;;;;;;20.47;51.00;101622.50;4992995;28;20022;-61
2021/10/19 04:41:18;;;;;;;4.70;2.57;;;;;;;20.47;50.79;101624.28;4992527;28;20478;-60
2021/10/19 04:43:43;;;;;;;4.30;2.40;;;;;;;20.46;51.02;101620.81;4992002;28;20050;-60
2021/10/19 04:46:08;;;;;;;4.18;2.45;;;;;;;20.45;50.99;101619.13;4992654;28;20030;-61
2021/10/19 04:48:34;;;;;;;4.07;2.20;;;;;;;20.46;50.86;101614.69;4992890;28;20045;-61
2021/10/19 04:50:59;;;;;;;3.90;2.13;;;;;;;20.44;50.78;101620.09;4991681;28;20120;-61
2021/10/19 04:53:24;;;;;;;3.83;2.20;;;;;;;20.45;51.13;101620.94;4991792;28;20039;-60
2021/10/19 04:55:50;;;;;;;4.10;2.40;;;;;;;20.45;51.00;101626.22;4992829;28;20264;-60
2021/10/19 04:58:15;;;;;;;3.63;2.07;;;;;;;20.45;51.15;101626.22;4991688;28;20312;-60
2021/10/19 05:00:43;;;;;;;4.20;2.22;;;;;;;20.45;51.01;101621.78;4993821;28;20759;-61
2021/10/19 05:03:11;;;;;;;4.40;2.20;;;;;;;20.45;50.99;101621.78;4996519;28;20032;-61
2021/10/19 05:05:39;;;;;;;3.60;2.10;;;;;;;20.45;51.02;101615.66;4995979;28;20085;-60
2021/10/19 05:08:05;;;;;;;4.00;2.10;;;;;;;20.45;51.09;101610.34;4996401;28;20046;-61
2021/10/19 05:10:32;;;;;;;3.55;2.08;;;;;;;20.45;51.08;101610.34;4996500;28;20065;-61
2021/10/19 05:12:58;;;;;;;4.38;2.45;;;;;;;20.45;51.12;101613.00;4995650;28;20374;-60
2021/10/19 05:15:24;;;;;;;3.60;2.13;;;;;;;20.44;50.96;101608.66;4997077;28;20035;-60
2021/10/19 05:17:50;;;;;;;3.83;2.17;;;;;;;20.44;50.93;101613.94;4996594;28;20688;-61
2021/10/19 05:20:16;;;;;;;4.25;2.20;;;;;;;20.46;51.09;101609.41;4995409;28;20199;-61
2021/10/19 05:22:41;;;;;;;3.53;2.00;;;;;;;20.46;51.08;101604.94;4996487;28;20073;-61
2021/10/19 05:25:06;;;;;;;4.07;1.80;;;;;;;20.47;50.87;101600.47;4995374;28;20466;-60
2021/10/19 05:27:32;;;;;;;3.15;1.80;;;;;;;20.55;50.75;101591.91;4996527;28;20589;-60
2021/10/19 05:29:57;;;;;;;4.53;2.20;;;;;;;20.67;50.24;101592.78;4995995;28;20436;-62
2021/10/19 05:32:22;;;;;;;3.60;2.10;;;;;;;20.78;49.93;101592.75;4995557;28;20588;-60
2021/10/19 05:34:48;;;;;;;3.70;2.00;;;;;;;20.88;49.62;101593.69;4996270;28;20598;-60
2021/10/19 05:37:13;;;;;;;3.83;1.88;;;;;;;20.96;49.24;101590.41;4995964;28;20470;-61
2021/10/19 05:39:47;;;;;;;3.50;1.77;;;;;;;21.05;49.28;101602.09;4995210;28;20133;-60
2021/10/19 05:42:13;;;;;;;3.25;1.80;;;;;;;21.10;48.64;101599.91;4995947;28;20045;-60
2021/10/19 05:44:40;;;;;;;3.95;1.98;;;;;;;21.16;48.70;101597.56;4996164;28;20467;-59
2021/10/19 05:47:05;;;;;;;3.22;1.77;;;;;;;21.22;48.75;101592.72;4994865;28;20065;-61
2021/10/19 05:49:33;;;;;;;3.50;1.83;;;;;;;21.27;48.43;101595.84;4996119;28;20482;-61
2021/10/19 05:51:58;;;;;;;2.60;1.45;;;;;;;21.31;48.43;101592.81;4995369;28;20034;-61
2021/10/19 05:54:25;;;;;;;3.97;1.90;;;;;;;21.35;48.20;101593.41;4994652;28;20092;-61
2021/10/19 05:56:59;;;;;;;3.88;1.85;;;;;;;21.38;48.32;101593.16;4995704;28;20681;-61
2021/10/19 05:59:28;;;;;;;4.20;2.05;;;;;;;21.41;48.51;101581.44;4995799;28;20033;-62
2021/10/19 06:01:55;;;;;;;3.20;1.63;;;;;;;21.43;48.31;101582.13;4994989;28;20038;-61
2021/10/19 06:04:20;;;;;;;3.75;1.70;;;;;;;21.43;48.15;101580.34;4995407;28;20034;-61
2021/10/19 06:06:53;;;;;;;3.10;1.52;;;;;;;21.43;48.23;101587.44;4995508;28;20088;-62
2021/10/19 06:09:18;;;;;;;3.10;1.60;;;;;;;21.41;48.49;101589.38;4994708;28;20023;-61
2021/10/19 06:11:44;;;;;;;3.17;1.70;;;;;;;21.32;48.41;101594.50;4994941;28;20057;-62
2021/10/19 06:14:09;;;;;;;3.38;1.60;;;;;;;21.42;48.41;101599.03;4995288;28;20030;-61
2021/10/19 06:16:34;;;;;;;2.93;1.60;;;;;;;21.39;48.50;101592.16;4994794;28;20053;-61
2021/10/19 06:19:02;;;;;;;2.70;1.43;;;;;;;21.40;48.72;101606.28;4995188;28;20348;-63
2021/10/19 06:21:27;;;;;;;2.17;1.27;;;;;;;21.36;49.04;101598.59;4994361;28;20806;-64
2021/10/19 06:23:55;;;;;;;3.58;1.60;;;;;;;21.36;48.98;101601.25;4995584;28;20030;-62
2021/10/19 06:26:20;;;;;;;3.17;1.63;;;;;;;21.38;48.86;101593.16;4995233;28;20030;-60
2021/10/19 06:28:46;;;;;;;3.35;1.35;;;;;;;21.41;48.84;101592.88;4994623;28;20023;-62
2021/10/19 06:31:11;;;;;;;3.05;1.50;;;;;;;21.43;48.53;101595.41;4995046;28;20061;-62
2021/10/19 06:33:36;;;;;;;3.58;1.60;;;;;;;21.44;48.95;101592.63;4995149;28;20026;-62
2021/10/19 06:36:04;;;;;;;4.68;1.50;;;;;;;21.45;49.10;101593.47;4994004;28;20037;-61
2021/10/19 06:38:29;;;;;;;3.45;1.70;;;;;;;21.44;49.02;101584.66;5010221;28;20034;-61
2021/10/19 06:40:54;;;;;;;2.90;1.60;;;;;;;21.42;49.41;101588.44;4995039;28;20114;-62
2021/10/19 06:43:19;;;;;;;3.72;1.85;;;;;;;21.36;49.73;101593.28;4993801;28;20026;-62
2021/10/19 06:45:45;;;;;;;4.50;1.93;;;;;;;21.32;50.28;101593.66;4994918;28;20041;-63
2021/10/19 06:48:10;;;;;;;5.05;2.00;;;;;;;21.30;50.45;101579.66;4994296;28;20276;-63
2021/10/19 06:50:36;;;;;;;5.80;2.00;;;;;;;21.28;50.71;101585.09;4993791;28;20443;-62
2021/10/19 06:53:02;;;;;;;4.95;2.10;;;;;;;21.27;51.03;101587.88;4994641;28;20019;-63
2021/10/19 06:55:27;;;;;;;5.28;2.00;;;;;;;21.28;51.00;101586.91;4994406;28;20042;-62
2021/10/19 06:57:52;;;;;;;4.53;2.20;;;;;;;21.30;51.07;101587.63;4993872;28;20386;-60
2021/10/19 07:00:18;;;;;;;6.50;2.27;;;;;;;21.32;51.15;101599.78;4994409;28;20123;-61
2021/10/19 07:02:45;;;;;;;6.47;2.05;;;;;;;21.34;50.98;101584.59;4994500;28;20551;-64
2021/10/19 07:05:10;;;;;;;4.85;2.13;;;;;;;21.40;51.19;101590.38;4992612;28;20137;-63
2021/10/19 07:07:40;;;;;;;5.20;2.20;;;;;;;21.42;51.12;101596.38;4994918;28;20052;-62
2021/10/19 07:10:06;;;;;;;4.00;1.88;;;;;;;21.41;51.65;101592.03;4994502;28;20030;-64
2021/10/19 07:12:39;;;;;;;3.95;1.90;;;;;;;21.40;52.01;101595.69;4994933;28;20034;-60
2021/10/19 07:15:06;;;;;;;5.22;2.15;;;;;;;21.45;51.63;101596.97;4994244;28;20065;-60
2021/10/19 07:17:31;;;;;;;4.40;2.05;;;;;;;21.56;51.03;101596.09;4994471;28;20027;-61
2021/10/19 07:19:56;;;;;;;4.03;1.90;;;;;;;21.64;50.81;101601.59;4994072;28;20037;-62
2021/10/19 07:22:22;;;;;;;4.63;2.50;;;;;;;21.70;50.64;101616.16;4993998;28;20040;-61
2021/10/19 07:24:47;;;;;;;3.78;1.73;;;;;;;21.73;50.64;101607.94;4992853;28;20322;-61
2021/10/19 07:27:12;;;;;;;5.07;1.83;;;;;;;21.78;50.34;101615.47;4993853;28;20485;-61
2021/10/19 07:29:38;;;;;;;5.28;1.80;;;;;;;21.82;50.24;101608.97;4994583;28;20077;-61
2021/10/19 07:32:04;;;;;;;4.75;1.60;;;;;;;21.83;50.06;101603.53;4992858;28;20049;-61
2021/10/19 07:34:30;;;;;;;4.28;1.50;;;;;;;21.84;50.03;101609.66;4994032;28;20088;-61
2021/10/19 07:36:56;;;;;;;4.30;1.50;;;;;;;21.84;49.85;101613.19;4994014;28;20382;-61
2021/10/19 07:39:21;;;;;;;4.45;1.40;;;;;;;21.85;49.80;101612.19;4993149;28;20403;-61
2021/10/19 07:41:46;;;;;;;4.13;1.40;;;;;;;21.86;49.98;101610.41;4993972;28;20077;-61
2021/10/19 07:44:11;;;;;;;3.03;1.40;;;;;;;21.84;49.71;101614.97;4993429;28;20033;-60
2021/10/19 07:46:40;;;;;;;3.77;1.43;;;;;;;21.83;49.68;101608.84;4992924;28;20303;-60
2021/10/19 07:49:06;;;;;;;3.63;1.40;;;;;;;21.83;49.92;101619.44;4993314;28;20632;-60
2021/10/19 07:51:31;;;;;;;3.30;1.38;;;;;;;21.83;49.85;101618.63;4993680;28;20030;-60
2021/10/19 07:53:56;;;;;;;2.78;1.17;;;;;;;21.82;50.00;101623.06;4992487;28;20049;-60
2021/10/19 07:56:22;;;;;;;3.20;1.53;;;;;;;21.81;49.99;101616.09;4993618;28;20038;-61
2021/10/19 07:58:48;;;;;;;3.60;1.43;;;;;;;21.80;50.23;101617.06;4993526;28;20280;-60
2021/10/19 08:01:13;;;;;;;3.40;1.40;;;;;;;21.80;50.08;101616.22;4992518;28;20308;-60
2021/10/19 08:03:38;;;;;;;3.63;1.50;;;;;;;21.77;50.16;101624.44;4993491;28;20117;-60
2021/10/19 08:06:04;;;;;;;3.23;1.47;;;;;;;21.76;50.10;101623.56;4993300;28;20034;-61
2021/10/19 08:08:29;;;;;;;3.88;1.40;;;;;;;21.74;49.74;101622.88;4992656;28;20280;-61
2021/10/19 08:10:54;;;;;;;4.40;1.50;;;;;;;21.74;49.83;101621.06;4993447;28;20030;-61
2021/10/19 08:13:20;;;;;;;3.03;1.20;;;;;;;21.77;49.88;101613.81;4992916;28;20267;-61
2021/10/19 08:15:48;;;;;;;3.42;1.30;;;;;;;21.77;49.75;101614.66;4992602;28;20038;-60
2021/10/19 08:18:14;;;;;;;3.25;1.17;;;;;;;21.78;49.75;101619.00;4992792;28;20493;-59
2021/10/19 08:20:40;;;;;;;3.58;1.30;;;;;;;21.79;49.64;101625.13;4993185;28;20490;-60
2021/10/19 08:23:06;;;;;;;3.03;1.25;;;;;;;21.79;49.65;101619.84;4992397;28;20070;-61
2021/10/19 08:25:32;;;;;;;3.05;1.30;;;;;;;21.79;49.58;101630.44;4993155;28;20110;-61
2021/10/19 08:27:57;;;;;;;2.85;1.35;;;;;;;21.78;49.78;101626.97;4991410;28;20161;-60
2021/10/19 08:30:23;;;;;;;3.28;1.25;;;;;;;21.77;49.65;101622.63;4993027;28;20382;-60
2021/10/19 08:32:50;;;;;;;3.15;1.20;;;;;;;21.77;49.60;101619.97;4993241;28;20113;-60
2021/10/19 08:35:17;;;;;;;3.45;1.13;;;;;;;21.78;49.76;101615.47;4992068;28;20133;-60
2021/10/19 08:37:43;;;;;;;3.60;1.17;;;;;;;21.77;49.76;101611.16;4993104;28;20049;-60
2021/10/19 08:40:09;;;;;;;2.72;1.10;;;;;;;21.76;49.59;101607.66;4992547;28;20026;-60
2021/10/19 08:42:42;;;;;;;3.22;1.30;;;;;;;21.77;49.84;101613.81;4992216;28;20038;-60
2021/10/19 08:45:12;;;;;;;3.33;1.25;;;;;;;21.76;49.80;101617.44;4992477;28;20493;-60
2021/10/19 08:47:40;;;;;;;3.85;1.23;;;;;;;21.74;49.57;101615.75;4993189;28;20343;-60
2021/10/19 08:50:06;;;;;;;3.30;1.08;;;;;;;21.74;49.81;101615.75;4991944;28;20034;-60
2021/10/19 08:52:31;;;;;;;1.67;1.00;;;;;;;21.73;49.96;101616.72;4993190;28;20031;-59
2021/10/19 08:54:56;;;;;;;3.05;1.25;;;;;;;21.72;50.03;101609.72;4992532;28;20391;-60
2021/10/19 08:57:22;;;;;;;3.00;1.20;;;;;;;21.70;49.87;101618.81;4992166;28;20045;-59
2021/10/19 08:59:51;;;;;;;2.87;1.10;;;;;;;21.71;50.03;101620.47;4992906;28;20052;-60
2021/10/19 09:02:16;;;;;;;3.13;1.30;;;;;;;21.70;49.96;101618.81;4992617;28;20288;-60
2021/10/19 09:04:43;;;;;;;2.83;1.15;;;;;;;21.70;49.93;101618.81;4991936;28;20046;-60
2021/10/19 09:07:11;;;;;;;2.70;1.00;;;;;;;21.71;50.03;101618.69;4992524;28;20030;-60
2021/10/19 09:09:37;;;;;;;2.58;1.10;;;;;;;21.73;49.92;101621.22;4992867;28;20030;-60
2021/10/19 09:12:03;;;;;;;2.97;1.45;;;;;;;21.72;49.84;101623.00;4991470;28;20482;-60
2021/10/19 09:14:35;;;;;;;2.67;1.30;;;;;;;21.73;49.77;101616.72;4992719;28;20027;-61
2021/10/19 09:17:04;;;;;;;1.77;0.90;;;;;;;21.74;49.90;101617.56;4992498;28;20049;-61
2021/10/19 09:19:29;;;;;;;2.88;1.17;;;;;;;21.74;49.78;101607.78;4992007;28;20143;-60
2021/10/19 09:22:01;;;;;;;3.15;1.00;;;;;;;21.74;49.70;101610.44;4992719;28;20058;-60
2021/10/19 09:24:29;;;;;;;2.65;1.20;;;;;;;21.74;49.83;101610.44;4991946;28;20069;-60
2021/10/19 09:27:10;;;;;;;3.00;1.02;;;;;;;21.73;49.72;101614.09;4992643;28;20027;-60
2021/10/19 09:29:48;;;;;;;3.97;0.95;;;;;;;21.74;49.67;101609.59;4992682;28;20026;-59
2021/10/19 09:32:14;;;;;;;2.15;1.00;;;;;;;21.75;49.73;101611.31;4991509;28;20385;-60
2021/10/19 09:34:44;;;;;;;2.40;1.05;;;;;;;21.73;49.76;101616.72;4992709;28;20045;-60
2021/10/19 09:37:11;;;;;;;2.47;1.10;;;;;;;21.71;49.92;101613.38;4992034;28;20028;-60
2021/10/19 09:39:42;;;;;;;2.88;1.05;;;;;;;21.72;50.02;101619.50;4991919;28;20043;-61
2021/10/19 09:42:10;;;;;;;4.15;1.02;;;;;;;21.72;49.98;101624.81;4992207;28;20064;-60
2021/10/19 09:44:36;;;;;;;3.53;1.30;;;;;;;21.71;49.95;101624.00;4992370;28;20475;-61
2021/10/19 09:47:03;;;;;;;2.83;0.90;;;;;;;21.73;50.21;101621.22;4992830;28;20073;-60
2021/10/19 09:49:30;;;;;;;3.00;1.20;;;;;;;21.74;50.18;101630.84;4995969;28;20034;-61
2021/10/19 09:52:00;;;;;;;2.75;1.05;;;;;;;21.76;50.07;101630.69;4995743;28;20125;-61
2021/10/19 09:54:29;;;;;;;2.67;0.90;;;;;;;21.76;49.97;101641.31;4994964;28;20046;-60
2021/10/19 09:56:58;;;;;;;2.95;1.17;;;;;;;21.77;50.17;101629.75;4996017;28;20034;-63
2021/10/19 09:59:24;;;;;;;1.92;1.00;;;;;;;21.77;50.71;101632.41;4995043;28;20084;-62
2021/10/19 10:01:50;;;;;;;3.75;1.10;;;;;;;21.78;50.34;101626.09;4995726;28;20406;-62
2021/10/19 10:04:15;;;;;;;1.92;0.98;;;;;;;21.79;50.32;101625.13;4995245;28;20056;-62
2021/10/19 10:06:41;;;;;;;2.15;1.00;;;;;;;21.79;49.91;101633.94;4995062;28;20038;-62
2021/10/19 10:09:08;;;;;;;2.05;0.90;;;;;;;21.80;50.13;101626.84;4995438;28;20022;-61
2021/10/19 10:11:33;;;;;;;2.67;1.10;;;;;;;21.80;49.91;101640.09;4995443;28;20046;-61
2021/10/19 10:14:03;;;;;;;2.38;0.90;;;;;;;21.80;50.06;101635.63;4994407;28;20510;-62
2021/10/19 10:16:29;;;;;;;2.28;0.80;;;;;;;21.80;50.05;101645.41;4995540;28;20443;-62
2021/10/19 10:18:56;;;;;;;3.20;1.10;;;;;;;21.78;50.12;101621.66;4995231;28;20030;-62
2021/10/19 10:21:24;;;;;;;1.90;0.80;;;;;;;21.80;50.24;101630.31;4994772;28;20390;-61
2021/10/19 10:24:04;;;;;;;2.58;0.90;;;;;;;21.80;49.98;101626.84;4995466;28;20433;-61
2021/10/19 10:26:32;;;;;;;1.85;0.80;;;;;;;21.81;49.99;101625.84;4995451;28;20042;-61
2021/10/19 10:29:13;;;;;;;3.10;1.10;;;;;;;21.82;50.21;101630.19;4994254;28;20034;-61
2021/10/19 10:31:47;;;;;;;2.30;1.20;;;;;;;21.82;50.27;101624.88;4995032;28;20031;-59
2021/10/19 10:34:13;;;;;;;2.10;1.00;;;;;;;21.81;50.36;101625.84;4994730;28;20030;-62
2021/10/19 10:36:45;;;;;;;2.20;0.90;;;;;;;21.82;50.56;101623.06;4994133;28;20027;-60
2021/10/19 10:39:11;;;;;;;1.92;1.00;;;;;;;21.77;50.70;101624.44;4995884;28;20034;-61
2021/10/19 10:41:45;;;;;;;2.83;0.95;;;;;;;21.74;50.94;101621.06;4995584;28;20022;-63
2021/10/19 10:44:17;;;;;;;1.33;0.80;;;;;;;21.80;50.81;101624.19;4997331;28;20096;-62
2021/10/19 10:46:42;;;;;;;2.28;1.00;;;;;;;21.86;50.77;101616.53;5000573;28;20034;-62
2021/10/19 10:49:11;;;;;;;5.38;1.98;;;;;;;21.87;50.92;101626.19;4995038;28;20032;-62
2021/10/19 10:52:00;;;;;;;2.40;1.20;;;;;;;21.85;51.21;101628.09;4996117;28;20402;-62
2021/10/19 10:54:26;;;;;;;4.25;1.35;;;;;;;21.83;51.46;101613.31;5001848;28;20050;-61
2021/10/19 10:56:53;;;;;;;2.72;1.00;;;;;;;21.82;51.24;101615.09;4994565;28;20042;-61
2021/10/19 10:59:31;;;;;;;3.13;1.20;;;;;;;21.84;51.62;101612.31;4993601;28;20019;-62
2021/10/19 11:02:07;;;;;;;2.30;1.05;;;;;;;21.88;51.44;101611.09;4995309;28;20109;-61
2021/10/19 11:04:32;;;;;;;2.90;1.05;;;;;;;21.95;51.16;101604.28;4995402;28;20383;-64
2021/10/19 11:06:58;;;;;;;2.35;1.17;;;;;;;22.03;51.17;101614.25;4995643;28;20501;-63
2021/10/19 11:09:28;;;;;;;2.10;1.08;;;;;;;22.06;51.10;101606.00;4995363;28;20018;-62
2021/10/19 11:12:02;;;;;;;2.60;1.15;;;;;;;22.03;51.40;101619.53;4994356;28;20437;-61
2021/10/19 11:14:27;;;;;;;3.27;1.20;;;;;;;21.98;51.13;101606.66;4994944;28;20105;-62
2021/10/19 11:16:55;;;;;;;3.35;1.15;;;;;;;21.95;51.10;101608.75;4994047;28;20764;-61
2021/10/19 11:19:23;;;;;;;2.80;1.13;;;;;;;21.92;50.99;101610.72;4994228;28;20085;-61
2021/10/19 11:21:52;;;;;;;1.88;1.25;;;;;;;21.89;51.29;101605.66;4994633;28;20043;-61